createdAt,value
2018-02-07T00:00:40.436Z,81.37
2018-02-07T00:03:08.777Z,81.42
2018-02-07T00:05:37.142Z,81.35
2018-02-07T00:08:05.494Z,81.37
2018-02-07T00:10:33.817Z,81.25
2018-02-07T00:13:02.178Z,80.83
2018-02-07T00:15:30.500Z,80.49
2018-02-07T00:17:58.810Z,80.48
2018-02-07T00:20:27.157Z,80.56
2018-02-07T00:22:55.519Z,80.46
2018-02-07T00:25:23.870Z,80.58
2018-02-07T00:27:53.039Z,80.51
2018-02-07T00:30:21.395Z,80.60
2018-02-07T00:32:49.714Z,80.67
2018-02-07T00:35:18.110Z,80.91
2018-02-07T00:37:46.430Z,81.12
2018-02-07T00:40:14.822Z,81.15
2018-02-07T00:42:43.160Z,81.08
2018-02-07T00:45:11.506Z,81.32
2018-02-07T00:47:39.858Z,81.35
2018-02-07T00:50:08.186Z,80.91
2018-02-07T00:52:36.533Z,80.80
2018-02-07T00:55:04.941Z,81.02
2018-02-07T00:57:33.293Z,81.04
2018-02-07T01:00:01.625Z,80.86
2018-02-07T01:02:29.971Z,80.70
2018-02-07T01:04:58.295Z,80.43
2018-02-07T01:07:26.657Z,80.68
2018-02-07T01:09:54.980Z,80.67
2018-02-07T01:12:23.306Z,80.75
2018-02-07T01:14:51.655Z,81.13
2018-02-07T01:17:19.976Z,81.26
2018-02-07T01:19:48.310Z,81.22
2018-02-07T01:22:16.641Z,81.32
2018-02-07T01:24:45.080Z,81.36
2018-02-07T01:27:13.406Z,81.55
2018-02-07T01:29:41.840Z,81.80
2018-02-07T01:32:10.256Z,82.08
2018-02-07T01:34:38.633Z,82.16
2018-02-07T01:37:06.930Z,82.29
2018-02-07T01:39:35.253Z,82.40
2018-02-07T01:42:03.607Z,82.62
2018-02-07T01:44:31.984Z,82.69
2018-02-07T01:47:00.327Z,82.35
2018-02-07T01:49:28.647Z,81.87
2018-02-07T01:51:56.998Z,81.71
2018-02-07T01:54:25.322Z,81.43
2018-02-07T01:56:53.666Z,80.96
2018-02-07T01:59:22.030Z,80.74
2018-02-07T02:01:50.373Z,80.55
2018-02-07T02:04:18.707Z,80.49
2018-02-07T02:06:47.062Z,80.52
2018-02-07T02:09:15.382Z,80.52
2018-02-07T02:11:43.705Z,80.74
2018-02-07T02:14:12.050Z,80.83
2018-02-07T02:16:40.375Z,80.87
2018-02-07T02:19:08.729Z,80.84
2018-02-07T02:21:37.061Z,80.70
2018-02-07T02:24:05.424Z,80.76
2018-02-07T02:26:33.756Z,81.05
2018-02-07T02:29:02.102Z,81.27
2018-02-07T02:31:30.436Z,81.58
2018-02-07T02:33:58.796Z,82.04
2018-02-07T02:36:38.923Z,82.30
2018-02-07T02:39:07.283Z,82.47
2018-02-07T02:41:35.619Z,82.59
2018-02-07T02:44:03.940Z,82.63
2018-02-07T02:46:32.324Z,82.54
2018-02-07T02:49:00.637Z,82.28
2018-02-07T02:51:28.996Z,82.08
2018-02-07T02:53:57.320Z,81.84
2018-02-07T02:56:25.763Z,81.58
2018-02-07T02:58:54.079Z,81.57
2018-02-07T03:01:22.442Z,81.76
2018-02-07T03:03:50.867Z,81.58
2018-02-07T03:06:19.190Z,81.35
2018-02-07T03:08:47.534Z,81.09
2018-02-07T03:11:15.858Z,80.75
2018-02-07T03:13:44.202Z,80.78
2018-02-07T03:16:12.522Z,81.04
2018-02-07T03:18:40.873Z,80.87
2018-02-07T03:21:09.202Z,80.88
2018-02-07T03:23:37.561Z,81.06
2018-02-07T03:26:05.889Z,81.22
2018-02-07T03:28:34.261Z,81.46
2018-02-07T03:31:02.595Z,81.77
2018-02-07T03:33:30.937Z,82.02
2018-02-07T03:35:59.277Z,82.13
2018-02-07T03:38:27.663Z,82.24
2018-02-07T03:40:55.990Z,82.32
2018-02-07T03:43:24.322Z,82.37
2018-02-07T03:45:52.678Z,82.49
2018-02-07T03:48:21.062Z,82.58
2018-02-07T03:50:49.430Z,82.54
2018-02-07T03:53:17.758Z,82.68
2018-02-07T03:55:46.110Z,82.76
2018-02-07T03:58:14.444Z,82.84
2018-02-07T04:00:42.809Z,82.80
2018-02-07T04:03:11.165Z,82.62
2018-02-07T04:05:39.611Z,82.62
2018-02-07T04:08:07.951Z,82.62
2018-02-07T04:10:36.361Z,82.71
2018-02-07T04:13:04.717Z,82.83
2018-02-07T04:15:33.049Z,82.91
2018-02-07T04:18:01.391Z,82.91
2018-02-07T04:20:29.731Z,83.00
2018-02-07T04:22:58.090Z,82.91
2018-02-07T04:25:26.415Z,82.88
2018-02-07T04:27:54.815Z,82.95
2018-02-07T04:30:23.154Z,82.89
2018-02-07T04:32:51.604Z,82.88
2018-02-07T04:35:19.914Z,82.73
2018-02-07T04:37:48.239Z,82.56
2018-02-07T04:40:16.586Z,82.33
2018-02-07T04:42:44.974Z,82.31
2018-02-07T04:45:13.342Z,82.32
2018-02-07T04:47:41.677Z,82.29
2018-02-07T04:50:10.029Z,82.42
2018-02-07T04:52:38.353Z,82.63
2018-02-07T04:55:06.737Z,82.80
2018-02-07T04:57:35.076Z,82.57
2018-02-07T05:00:03.763Z,82.20
2018-02-07T05:02:32.208Z,82.19
2018-02-07T05:05:00.683Z,82.08
2018-02-07T05:07:29.042Z,82.18
2018-02-07T05:09:57.367Z,82.15
2018-02-07T05:12:25.722Z,82.10
2018-02-07T05:14:54.054Z,82.01
2018-02-07T05:17:22.418Z,81.93
2018-02-07T05:19:50.742Z,81.71
2018-02-07T05:22:19.098Z,81.92
2018-02-07T05:24:47.430Z,81.89
2018-02-07T05:27:15.789Z,81.92
2018-02-07T05:29:44.125Z,81.89
2018-02-07T05:32:13.362Z,81.95
2018-02-07T05:34:41.735Z,82.15
2018-02-07T05:37:10.065Z,82.40
2018-02-07T05:39:38.451Z,82.39
2018-02-07T05:42:06.781Z,82.61
2018-02-07T05:44:35.127Z,82.83
2018-02-07T05:47:03.478Z,82.72
2018-02-07T05:49:31.830Z,82.25
2018-02-07T05:52:00.155Z,82.01
2018-02-07T05:54:28.511Z,82.12
2018-02-07T05:56:56.842Z,82.09
2018-02-07T05:59:25.314Z,82.23
2018-02-07T06:01:53.650Z,82.22
2018-02-07T06:04:21.978Z,82.22
2018-02-07T06:06:50.337Z,82.46
2018-02-07T06:09:18.719Z,82.63
2018-02-07T06:11:47.085Z,82.85
2018-02-07T06:14:15.431Z,83.04
2018-02-07T06:16:43.783Z,83.32
2018-02-07T06:19:12.111Z,83.52
2018-02-07T06:21:40.515Z,83.48
2018-02-07T06:24:08.861Z,83.57
2018-02-07T06:26:37.223Z,83.58
2018-02-07T06:29:05.551Z,83.54
2018-02-07T06:31:33.919Z,83.60
2018-02-07T06:34:02.258Z,83.65
2018-02-07T06:36:30.594Z,83.80
2018-02-07T06:38:59.024Z,83.87
2018-02-07T06:41:27.378Z,83.87
2018-02-07T06:43:55.742Z,83.86
2018-02-07T06:46:24.094Z,83.86
2018-02-07T06:48:52.467Z,83.81
2018-02-07T06:51:20.893Z,83.86
2018-02-07T06:53:49.231Z,83.89
2018-02-07T06:56:17.577Z,83.90
2018-02-07T06:58:45.989Z,83.61
2018-02-07T07:01:14.323Z,83.44
2018-02-07T07:03:42.666Z,83.17
2018-02-07T07:06:11.019Z,83.03
2018-02-07T07:08:39.427Z,83.14
2018-02-07T07:11:07.746Z,83.11
2018-02-07T07:13:36.092Z,83.15
2018-02-07T07:16:04.426Z,83.37
2018-02-07T07:18:32.776Z,83.62
2018-02-07T07:21:01.229Z,83.77
2018-02-07T07:23:29.581Z,83.37
2018-02-07T07:25:58.291Z,82.96
2018-02-07T07:28:26.816Z,82.72
2018-02-07T07:30:55.166Z,82.42
2018-02-07T07:33:23.495Z,82.24
2018-02-07T07:35:51.849Z,82.45
2018-02-07T07:38:20.189Z,82.67
2018-02-07T07:40:48.635Z,82.74
2018-02-07T07:43:16.987Z,82.68
2018-02-07T07:45:45.391Z,82.74
2018-02-07T07:48:13.754Z,82.92
2018-02-07T07:50:42.101Z,82.77
2018-02-07T07:53:10.522Z,82.91
2018-02-07T07:55:38.870Z,82.55
2018-02-07T07:58:07.226Z,82.56
2018-02-07T08:00:35.562Z,82.58
2018-02-07T08:03:03.954Z,82.52
2018-02-07T08:05:32.260Z,82.34
2018-02-07T08:08:00.590Z,82.26
2018-02-07T08:10:28.956Z,82.45
2018-02-07T08:12:57.382Z,82.45
2018-02-07T08:15:25.725Z,82.51
2018-02-07T08:17:54.057Z,82.53
2018-02-07T08:20:22.406Z,82.51
2018-02-07T08:22:50.752Z,82.58
2018-02-07T08:25:19.106Z,82.64
2018-02-07T08:27:47.469Z,82.52
2018-02-07T08:30:15.849Z,82.43
2018-02-07T08:32:44.264Z,82.29
2018-02-07T08:35:12.656Z,81.91
2018-02-07T08:37:40.986Z,81.74
2018-02-07T08:40:09.328Z,81.89
2018-02-07T08:42:37.702Z,81.92
2018-02-07T08:45:06.034Z,81.89
2018-02-07T08:47:34.393Z,81.71
2018-02-07T08:50:02.717Z,81.66
2018-02-07T08:52:31.071Z,81.57
2018-02-07T08:54:59.503Z,81.45
2018-02-07T08:57:27.841Z,81.32
2018-02-07T08:59:56.169Z,81.29
2018-02-07T09:02:24.537Z,81.19
2018-02-07T09:04:52.977Z,80.90
2018-02-07T09:07:21.285Z,80.80
2018-02-07T09:09:49.606Z,80.93
2018-02-07T09:12:18.050Z,80.96
2018-02-07T09:14:46.362Z,80.79
2018-02-07T09:17:14.706Z,81.08
2018-02-07T09:19:43.054Z,81.52
2018-02-07T09:22:11.382Z,81.30
2018-02-07T09:24:39.736Z,81.22
2018-02-07T09:27:08.062Z,81.04
2018-02-07T09:29:36.424Z,80.84
2018-02-07T09:32:04.771Z,80.70
2018-02-07T09:34:33.351Z,80.63
2018-02-07T09:37:02.283Z,80.67
2018-02-07T09:39:30.633Z,80.74
2018-02-07T09:41:58.973Z,80.76
2018-02-07T09:44:27.349Z,80.78
2018-02-07T09:46:55.676Z,80.73
2018-02-07T09:49:24.012Z,80.49
2018-02-07T09:51:52.377Z,80.52
2018-02-07T09:54:20.722Z,80.86
2018-02-07T09:56:49.132Z,80.90
2018-02-07T09:59:17.462Z,80.78
2018-02-07T10:01:45.821Z,80.84
2018-02-07T10:04:14.158Z,80.64
2018-02-07T10:06:42.501Z,80.42
2018-02-07T10:09:10.847Z,80.58
2018-02-07T10:11:39.232Z,80.66
2018-02-07T10:14:07.559Z,80.60
2018-02-07T10:16:35.933Z,80.36
2018-02-07T10:19:04.272Z,80.17
2018-02-07T10:21:32.605Z,80.13
2018-02-07T10:24:00.971Z,80.31
2018-02-07T10:26:29.369Z,80.26
2018-02-07T10:28:57.743Z,80.43
2018-02-07T10:31:26.089Z,80.77
2018-02-07T10:33:54.446Z,80.57
2018-02-07T10:36:22.769Z,80.62
2018-02-07T10:38:51.129Z,80.75
2018-02-07T10:41:19.450Z,80.96
2018-02-07T10:43:47.838Z,80.86
2018-02-07T10:46:16.180Z,80.75
2018-02-07T10:48:44.499Z,80.47
2018-02-07T10:51:12.911Z,80.36
2018-02-07T10:53:41.238Z,80.66
2018-02-07T10:56:09.633Z,80.80
2018-02-07T10:58:38.006Z,80.81
2018-02-07T11:01:06.389Z,80.76
2018-02-07T11:03:34.718Z,80.77
2018-02-07T11:06:03.085Z,80.46
2018-02-07T11:08:31.415Z,80.12
2018-02-07T11:10:59.778Z,80.09
2018-02-07T11:13:28.153Z,80.02
2018-02-07T11:15:56.476Z,80.11
2018-02-07T11:18:24.826Z,80.10
2018-02-07T11:20:53.196Z,80.03
2018-02-07T11:23:21.534Z,79.89
2018-02-07T11:25:49.874Z,79.55
2018-02-07T11:28:18.218Z,79.51
2018-02-07T11:30:46.546Z,79.60
2018-02-07T11:33:14.895Z,79.77
2018-02-07T11:35:43.220Z,79.85
2018-02-07T11:38:11.561Z,79.95
2018-02-07T11:40:39.887Z,79.77
2018-02-07T11:43:08.237Z,79.52
2018-02-07T11:45:36.576Z,79.60
2018-02-07T11:48:04.960Z,79.92
2018-02-07T11:50:33.408Z,80.00
2018-02-07T11:53:01.824Z,80.07
2018-02-07T11:55:30.266Z,80.38
2018-02-07T11:57:58.594Z,80.29
2018-02-07T12:00:26.948Z,80.23
2018-02-07T12:02:55.330Z,80.22
2018-02-07T12:05:23.684Z,80.24
2018-02-07T12:07:51.998Z,80.35
2018-02-07T12:10:20.358Z,80.77
2018-02-07T12:12:48.693Z,80.89
2018-02-07T12:15:17.040Z,81.15
2018-02-07T12:17:45.380Z,81.21
2018-02-07T12:20:13.754Z,81.17
2018-02-07T12:22:42.993Z,81.21
2018-02-07T12:25:11.315Z,80.98
2018-02-07T12:27:39.667Z,81.04
2018-02-07T12:30:08.203Z,81.11
2018-02-07T12:32:36.657Z,81.62
2018-02-07T12:35:04.993Z,82.07
2018-02-07T12:37:33.334Z,82.15
2018-02-07T12:40:01.672Z,82.29
2018-02-07T12:42:30.024Z,82.38
2018-02-07T12:44:58.372Z,82.12
2018-02-07T12:47:26.754Z,81.96
2018-02-07T12:49:55.087Z,81.94
2018-02-07T12:52:23.430Z,82.05
2018-02-07T12:54:51.777Z,82.33
2018-02-07T12:57:20.115Z,82.12
2018-02-07T12:59:48.479Z,82.05
2018-02-07T13:02:16.823Z,81.85
2018-02-07T13:04:45.180Z,81.62
2018-02-07T13:07:13.511Z,81.52
2018-02-07T13:09:41.876Z,82.12
2018-02-07T13:12:10.231Z,82.72
2018-02-07T13:14:38.582Z,82.62
2018-02-07T13:17:06.907Z,82.53
2018-02-07T13:19:35.269Z,82.78
2018-02-07T13:22:03.610Z,82.66
2018-02-07T13:24:31.990Z,82.86
2018-02-07T13:27:00.329Z,82.92
2018-02-07T13:29:28.700Z,82.98
2018-02-07T13:31:57.053Z,83.01
2018-02-07T13:34:25.379Z,83.00
2018-02-07T13:36:53.737Z,82.92
2018-02-07T13:39:22.197Z,82.84
2018-02-07T13:41:50.639Z,82.59
2018-02-07T13:44:19.003Z,82.09
2018-02-07T13:46:47.327Z,81.59
2018-02-07T13:49:15.655Z,81.49
2018-02-07T13:51:44.092Z,81.35
2018-02-07T13:54:12.414Z,81.16
2018-02-07T13:56:40.765Z,81.51
2018-02-07T13:59:09.106Z,81.52
2018-02-07T14:01:37.444Z,81.47
2018-02-07T14:04:05.830Z,81.61
2018-02-07T14:06:34.222Z,81.91
2018-02-07T14:09:02.602Z,82.27
2018-02-07T14:11:30.952Z,81.96
2018-02-07T14:13:59.398Z,81.70
2018-02-07T14:16:27.736Z,81.87
2018-02-07T14:18:56.091Z,82.08
2018-02-07T14:21:24.415Z,81.93
2018-02-07T14:23:52.850Z,81.52
2018-02-07T14:26:22.165Z,81.42
2018-02-07T14:28:50.515Z,81.51
2018-02-07T14:31:18.837Z,81.69
2018-02-07T14:33:47.297Z,81.76
2018-02-07T14:36:15.637Z,81.79
2018-02-07T14:38:44.034Z,81.61
2018-02-07T14:41:12.354Z,81.74
2018-02-07T14:43:40.676Z,81.48
2018-02-07T14:46:09.030Z,81.39
2018-02-07T14:48:37.362Z,81.65
2018-02-07T14:51:05.762Z,81.86
2018-02-07T14:53:34.092Z,81.93
2018-02-07T14:56:02.454Z,82.07
2018-02-07T14:58:30.781Z,82.14
2018-02-07T15:00:59.121Z,82.16
2018-02-07T15:03:27.449Z,81.84
2018-02-07T15:05:55.821Z,81.59
2018-02-07T15:08:24.152Z,81.28
2018-02-07T15:10:52.498Z,81.52
2018-02-07T15:13:20.846Z,81.60
2018-02-07T15:15:49.171Z,81.39
2018-02-07T15:18:17.514Z,81.70
2018-02-07T15:20:45.844Z,81.35
2018-02-07T15:23:14.234Z,81.35
2018-02-07T15:25:42.561Z,81.63
2018-02-07T15:28:10.910Z,81.18
2018-02-07T15:30:39.326Z,81.12
2018-02-07T15:33:07.670Z,80.93
2018-02-07T15:35:36.019Z,80.82
2018-02-07T15:38:04.481Z,81.10
2018-02-07T15:40:32.823Z,81.48
2018-02-07T15:43:01.220Z,81.53
2018-02-07T15:45:29.567Z,81.63
2018-02-07T15:47:57.974Z,81.63
2018-02-07T15:50:26.320Z,82.10
2018-02-07T15:52:54.659Z,82.52
2018-02-07T15:55:23.139Z,83.05
2018-02-07T15:57:51.446Z,82.88
2018-02-07T16:00:19.810Z,82.65
2018-02-07T16:02:48.928Z,82.84
2018-02-07T16:05:17.278Z,83.06
2018-02-07T16:07:45.602Z,83.32
2018-02-07T16:10:13.992Z,83.59
2018-02-07T16:12:42.306Z,83.11
2018-02-07T16:15:10.706Z,82.42
2018-02-07T16:17:39.042Z,81.85
2018-02-07T16:20:07.414Z,81.75
2018-02-07T16:22:35.953Z,81.73
2018-02-07T16:25:04.329Z,82.13
2018-02-07T16:27:32.693Z,82.45
2018-02-07T16:30:01.123Z,83.00
2018-02-07T16:32:29.567Z,83.49
2018-02-07T16:34:57.907Z,83.75
2018-02-07T16:37:26.265Z,83.76
2018-02-07T16:39:54.610Z,83.61
2018-02-07T16:42:23.032Z,83.68
2018-02-07T16:44:51.403Z,83.84
2018-02-07T16:47:19.742Z,84.05
2018-02-07T16:49:48.080Z,84.05
2018-02-07T16:52:16.528Z,83.97
2018-02-07T16:54:44.908Z,84.13
2018-02-07T16:57:13.223Z,84.14
2018-02-07T16:59:41.590Z,83.81
2018-02-07T17:02:09.929Z,83.77
2018-02-07T17:04:38.313Z,83.69
2018-02-07T17:07:06.627Z,83.45
2018-02-07T17:09:34.993Z,83.48
2018-02-07T17:12:03.338Z,83.26
2018-02-07T17:14:31.750Z,83.02
2018-02-07T17:17:00.073Z,82.72
2018-02-07T17:19:28.475Z,82.68
2018-02-07T17:21:56.795Z,82.78
2018-02-07T17:24:25.152Z,83.06
2018-02-07T17:26:53.524Z,82.92
2018-02-07T17:29:21.846Z,83.11
2018-02-07T17:31:50.212Z,83.39
2018-02-07T17:34:18.554Z,83.19
2018-02-07T17:36:46.919Z,82.90
2018-02-07T17:39:15.259Z,83.26
2018-02-07T17:41:43.617Z,83.49
2018-02-07T17:44:12.063Z,83.28
2018-02-07T17:46:40.515Z,83.26
2018-02-07T17:49:08.891Z,83.23
2018-02-07T17:51:37.275Z,82.99
2018-02-07T17:54:05.687Z,83.10
2018-02-07T17:56:34.011Z,83.44
2018-02-07T17:59:02.371Z,83.72
2018-02-07T18:01:30.707Z,83.66
2018-02-07T18:03:59.078Z,83.47
2018-02-07T18:06:27.439Z,83.26
2018-02-07T18:08:55.810Z,83.37
2018-02-07T18:11:24.162Z,83.51
2018-02-07T18:13:52.604Z,83.45
2018-02-07T18:16:20.946Z,83.31
2018-02-07T18:18:49.310Z,83.25
2018-02-07T18:21:17.659Z,83.19
2018-02-07T18:23:46.001Z,83.24
2018-02-07T18:26:14.340Z,83.42
2018-02-07T18:28:42.709Z,83.67
2018-02-07T18:31:11.033Z,83.86
2018-02-07T18:33:39.387Z,83.76
2018-02-07T18:36:07.805Z,84.10
2018-02-07T18:38:36.125Z,84.19
2018-02-07T18:41:04.482Z,84.56
2018-02-07T18:43:32.939Z,84.58
2018-02-07T18:46:01.275Z,84.49
2018-02-07T18:48:29.617Z,84.32
2018-02-07T18:50:57.958Z,84.29
2018-02-07T18:53:26.286Z,84.66
2018-02-07T18:55:54.652Z,84.73
2018-02-07T18:58:23.022Z,84.84
2018-02-07T19:00:51.364Z,84.72
2018-02-07T19:03:19.699Z,84.61
2018-02-07T19:05:48.110Z,84.63
2018-02-07T19:08:16.475Z,84.57
2018-02-07T19:10:44.802Z,84.70
2018-02-07T19:13:13.175Z,84.69
2018-02-07T19:15:41.499Z,84.71
2018-02-07T19:18:09.877Z,84.77
2018-02-07T19:20:38.245Z,84.58
2018-02-07T19:23:06.609Z,84.50
2018-02-07T19:25:34.951Z,84.69
2018-02-07T19:28:03.303Z,84.75
2018-02-07T19:30:31.824Z,84.62
2018-02-07T19:33:00.172Z,84.48
2018-02-07T19:35:28.514Z,84.48
2018-02-07T19:37:57.027Z,84.54
2018-02-07T19:40:25.440Z,84.71
2018-02-07T19:42:53.761Z,84.61
2018-02-07T19:45:22.684Z,84.62
2018-02-07T19:47:51.009Z,84.50
2018-02-07T19:50:19.376Z,84.58
2018-02-07T19:52:47.699Z,84.59
2018-02-07T19:55:16.063Z,84.92
2018-02-07T19:57:44.401Z,84.63
2018-02-07T20:00:12.765Z,84.33
2018-02-07T20:02:42.922Z,84.25
2018-02-07T20:05:11.269Z,84.31
2018-02-07T20:07:39.598Z,84.30
2018-02-07T20:10:07.990Z,84.42
2018-02-07T20:12:36.310Z,84.60
2018-02-07T20:15:04.670Z,84.28
2018-02-07T20:17:33.010Z,84.41
2018-02-07T20:20:01.410Z,84.51
2018-02-07T20:22:29.754Z,84.62
2018-02-07T20:24:58.087Z,84.69
2018-02-07T20:27:26.438Z,84.54
2018-02-07T20:29:54.809Z,84.41
2018-02-07T20:32:23.177Z,84.44
2018-02-07T20:34:51.513Z,84.48
2018-02-07T20:37:19.875Z,84.55
2018-02-07T20:39:48.203Z,84.39
2018-02-07T20:42:16.567Z,84.21
2018-02-07T20:44:44.895Z,84.16
2018-02-07T20:47:13.298Z,84.10
2018-02-07T20:49:41.668Z,83.99
2018-02-07T20:52:09.987Z,83.98
2018-02-07T20:54:38.342Z,83.86
2018-02-07T20:57:06.699Z,83.73
2018-02-07T20:59:35.046Z,83.66
2018-02-07T21:02:03.436Z,83.81
2018-02-07T21:04:31.763Z,84.07
2018-02-07T21:07:01.268Z,84.14
2018-02-07T21:09:29.710Z,84.08
2018-02-07T21:11:58.018Z,83.99
2018-02-07T21:14:26.385Z,83.94
2018-02-07T21:16:54.714Z,83.92
2018-02-07T21:19:23.079Z,83.95
2018-02-07T21:21:51.649Z,83.83
2018-02-07T21:24:20.023Z,83.70
2018-02-07T21:26:48.409Z,83.61
2018-02-07T21:29:16.722Z,83.68
2018-02-07T21:31:45.085Z,83.86
2018-02-07T21:34:13.408Z,83.65
2018-02-07T21:36:41.773Z,83.82
2018-02-07T21:39:10.108Z,83.62
2018-02-07T21:41:38.498Z,83.44
2018-02-07T21:44:06.818Z,83.68
2018-02-07T21:46:35.145Z,83.93
2018-02-07T21:49:03.502Z,84.34
2018-02-07T21:51:31.832Z,84.65
2018-02-07T21:54:00.281Z,84.83
2018-02-07T21:56:28.620Z,84.72
2018-02-07T21:58:57.043Z,84.65
2018-02-07T22:01:25.375Z,84.65
2018-02-07T22:03:53.737Z,84.62
2018-02-07T22:06:22.075Z,84.68
2018-02-07T22:08:50.489Z,84.62
2018-02-07T22:11:18.822Z,84.69
2018-02-07T22:13:47.154Z,84.87
2018-02-07T22:16:15.594Z,84.80
2018-02-07T22:18:43.974Z,84.66
2018-02-07T22:21:12.342Z,84.52
2018-02-07T22:23:40.734Z,84.64
2018-02-07T22:26:09.160Z,84.59
2018-02-07T22:28:37.498Z,84.59
2018-02-07T22:31:05.858Z,84.53
2018-02-07T22:33:34.195Z,84.52
2018-02-07T22:36:02.670Z,84.42
2018-02-07T22:38:30.989Z,84.35
2018-02-07T22:40:59.677Z,84.55
2018-02-07T22:43:28.001Z,84.31
2018-02-07T22:45:56.374Z,84.31
2018-02-07T22:48:24.714Z,84.17
2018-02-07T22:50:53.073Z,83.98
2018-02-07T22:53:21.502Z,84.04
2018-02-07T22:55:49.895Z,84.05
2018-02-07T22:58:18.256Z,84.13
2018-02-07T23:00:46.567Z,84.11
2018-02-07T23:03:14.930Z,83.96
2018-02-07T23:05:43.270Z,83.93
2018-02-07T23:08:11.654Z,83.91
2018-02-07T23:10:39.966Z,83.66
2018-02-07T23:13:08.339Z,83.68
2018-02-07T23:15:36.661Z,83.85
2018-02-07T23:18:04.994Z,83.87
2018-02-07T23:20:33.415Z,83.98
2018-02-07T23:23:01.745Z,84.02
2018-02-07T23:25:30.192Z,84.17
2018-02-07T23:27:59.517Z,84.26
2018-02-07T23:30:27.852Z,84.13
2018-02-07T23:32:56.183Z,83.90
2018-02-07T23:35:24.546Z,83.89
2018-02-07T23:37:52.882Z,83.96
2018-02-07T23:40:21.288Z,83.94
2018-02-07T23:42:49.612Z,84.01
2018-02-07T23:45:17.932Z,84.04
2018-02-07T23:47:46.282Z,84.26
2018-02-07T23:50:14.614Z,84.38
2018-02-07T23:52:42.994Z,84.42
2018-02-07T23:55:11.374Z,84.61
2018-02-07T23:57:39.702Z,84.45
